Gill, Texas
Current Conditions -  °F | °C
As of 8:15 PM on Saturday 22 Nov 2014 (Local Time) from KASL Reporting Station
Overcast Overcast  
Wind Chill: 62°   Ceiling: 1300
Heat Index: 62°   Visibility: 2mi
Dew Point: 59°   Wind: 3mph
Humidity: 90%   Direction: 120°ESE
Pressure: 29.89"   Gusts: NA
Location:  32.4675°N, 94.3321°W
Report Text: KASL 230215Z AUTO 12003KT 2SM SCT005 BKN013 OVC017 17/15 A2989 RMK AO1 P0013 T01670151
Loading
Personal Weather Stations






























Interactive Weather Map New forecast layout! Learn more

10-Day Weather Forecast

Advertisements
Track Severe Weather on mobile